sensor_id;sensor_type;location;lat;lon;timestamp;temperature;humidity
15262;DHT22;7733;51.554;13.590;2023-05-10T00:02:07;12.90;90.90
15262;DHT22;7733;51.554;13.590;2023-05-10T00:04:33;12.90;91.20
15262;DHT22;7733;51.554;13.590;2023-05-10T00:06:59;12.70;91.50
15262;DHT22;7733;51.554;13.590;2023-05-10T00:09:24;12.70;91.70
15262;DHT22;7733;51.554;13.590;2023-05-10T00:11:50;12.80;91.60
15262;DHT22;7733;51.554;13.590;2023-05-10T00:14:16;12.80;91.80
15262;DHT22;7733;51.554;13.590;2023-05-10T00:16:42;12.80;91.70
15262;DHT22;7733;51.554;13.590;2023-05-10T00:19:08;12.80;91.60
15262;DHT22;7733;51.554;13.590;2023-05-10T00:21:34;12.80;91.70
15262;DHT22;7733;51.554;13.590;2023-05-10T00:24:00;12.70;91.80
15262;DHT22;7733;51.554;13.590;2023-05-10T00:26:25;12.60;91.90
15262;DHT22;7733;51.554;13.590;2023-05-10T00:28:51;12.60;91.80
15262;DHT22;7733;51.554;13.590;2023-05-10T00:31:17;12.60;91.90
15262;DHT22;7733;51.554;13.590;2023-05-10T00:33:43;12.60;91.80
15262;DHT22;7733;51.554;13.590;2023-05-10T00:36:08;12.50;91.90
15262;DHT22;7733;51.554;13.590;2023-05-10T00:38:34;12.50;92.00
15262;DHT22;7733;51.554;13.590;2023-05-10T00:41:00;12.60;91.90
15262;DHT22;7733;51.554;13.590;2023-05-10T00:43:26;12.70;91.80
15262;DHT22;7733;51.554;13.590;2023-05-10T00:45:52;12.60;91.90
15262;DHT22;7733;51.554;13.590;2023-05-10T00:48:18;12.50;92.00
15262;DHT22;7733;51.554;13.590;2023-05-10T00:50:45;12.40;92.30
15262;DHT22;7733;51.554;13.590;2023-05-10T00:53:11;12.40;92.30
15262;DHT22;7733;51.554;13.590;2023-05-10T00:55:37;12.30;92.30
15262;DHT22;7733;51.554;13.590;2023-05-10T00:58:04;12.30;92.80
15262;DHT22;7733;51.554;13.590;2023-05-10T01:00:30;12.20;92.60
15262;DHT22;7733;51.554;13.590;2023-05-10T01:02:58;12.20;92.70
15262;DHT22;7733;51.554;13.590;2023-05-10T01:05:25;12.20;92.70
15262;DHT22;7733;51.554;13.590;2023-05-10T01:07:52;12.40;92.80
15262;DHT22;7733;51.554;13.590;2023-05-10T01:10:18;12.30;92.40
15262;DHT22;7733;51.554;13.590;2023-05-10T01:12:46;12.30;92.60
15262;DHT22;7733;51.554;13.590;2023-05-10T01:15:12;12.20;92.60
15262;DHT22;7733;51.554;13.590;2023-05-10T01:17:42;12.20;92.70
15262;DHT22;7733;51.554;13.590;2023-05-10T01:20:10;12.10;92.90
15262;DHT22;7733;51.554;13.590;2023-05-10T01:34:09;11.90;93.50
15262;DHT22;7733;51.554;13.590;2023-05-10T01:37:11;12.00;93.30
15262;DHT22;7733;51.554;13.590;2023-05-10T01:39:47;12.00;93.40
15262;DHT22;7733;51.554;13.590;2023-05-10T01:42:21;12.00;93.40
15262;DHT22;7733;51.554;13.590;2023-05-10T01:45:00;12.10;93.30
15262;DHT22;7733;51.554;13.590;2023-05-10T01:47:33;12.00;93.30
15262;DHT22;7733;51.554;13.590;2023-05-10T01:50:04;11.90;93.50
15262;DHT22;7733;51.554;13.590;2023-05-10T01:52:42;11.90;93.70
15262;DHT22;7733;51.554;13.590;2023-05-10T01:55:14;11.80;93.70
15262;DHT22;7733;51.554;13.590;2023-05-10T01:57:44;11.80;93.60
15262;DHT22;7733;51.554;13.590;2023-05-10T02:00:14;11.80;93.80
15262;DHT22;7733;51.554;13.590;2023-05-10T02:02:45;11.70;94.00
15262;DHT22;7733;51.554;13.590;2023-05-10T02:05:14;11.70;94.00
15262;DHT22;7733;51.554;13.590;2023-05-10T02:07:42;11.60;94.20
15262;DHT22;7733;51.554;13.590;2023-05-10T02:10:10;11.60;94.10
15262;DHT22;7733;51.554;13.590;2023-05-10T02:12:41;11.50;94.20
15262;DHT22;7733;51.554;13.590;2023-05-10T02:15:11;11.50;94.50
15262;DHT22;7733;51.554;13.590;2023-05-10T02:17:42;11.60;94.50
15262;DHT22;7733;51.554;13.590;2023-05-10T02:20:09;11.50;94.40
15262;DHT22;7733;51.554;13.590;2023-05-10T02:22:37;11.50;94.50
15262;DHT22;7733;51.554;13.590;2023-05-10T02:25:07;11.50;94.70
15262;DHT22;7733;51.554;13.590;2023-05-10T02:27:36;11.40;94.90
15262;DHT22;7733;51.554;13.590;2023-05-10T02:30:05;11.40;94.60
15262;DHT22;7733;51.554;13.590;2023-05-10T02:32:33;11.40;94.80
15262;DHT22;7733;51.554;13.590;2023-05-10T02:35:02;11.40;94.90
15262;DHT22;7733;51.554;13.590;2023-05-10T02:37:29;11.30;94.80
15262;DHT22;7733;51.554;13.590;2023-05-10T02:39:56;11.30;95.00
15262;DHT22;7733;51.554;13.590;2023-05-10T02:42:27;11.20;95.30
15262;DHT22;7733;51.554;13.590;2023-05-10T02:45:00;11.30;95.20
15262;DHT22;7733;51.554;13.590;2023-05-10T02:47:28;11.30;95.20
15262;DHT22;7733;51.554;13.590;2023-05-10T02:49:55;11.20;95.30
15262;DHT22;7733;51.554;13.590;2023-05-10T02:52:27;11.20;95.40
15262;DHT22;7733;51.554;13.590;2023-05-10T02:55:03;11.20;95.40
15262;DHT22;7733;51.554;13.590;2023-05-10T02:57:35;11.00;95.80
15262;DHT22;7733;51.554;13.590;2023-05-10T03:00:06;11.10;95.80
15262;DHT22;7733;51.554;13.590;2023-05-10T03:02:32;11.20;95.70
15262;DHT22;7733;51.554;13.590;2023-05-10T03:04:58;11.20;95.60
15262;DHT22;7733;51.554;13.590;2023-05-10T03:07:24;11.20;95.70
15262;DHT22;7733;51.554;13.590;2023-05-10T03:09:50;11.00;95.70
15262;DHT22;7733;51.554;13.590;2023-05-10T03:12:50;11.00;95.70
15262;DHT22;7733;51.554;13.590;2023-05-10T03:18:56;11.00;96.00
15262;DHT22;7733;51.554;13.590;2023-05-10T03:21:32;10.90;96.20
15262;DHT22;7733;51.554;13.590;2023-05-10T03:23:59;10.80;96.60
15262;DHT22;7733;51.554;13.590;2023-05-10T03:26:31;10.60;97.00
15262;DHT22;7733;51.554;13.590;2023-05-10T03:28:57;10.70;96.90
15262;DHT22;7733;51.554;13.590;2023-05-10T03:31:25;10.80;96.70
15262;DHT22;7733;51.554;13.590;2023-05-10T03:33:51;10.80;96.80
15262;DHT22;7733;51.554;13.590;2023-05-10T03:36:18;10.70;96.90
15262;DHT22;7733;51.554;13.590;2023-05-10T03:38:45;10.60;97.30
15262;DHT22;7733;51.554;13.590;2023-05-10T03:41:10;10.50;97.70
15262;DHT22;7733;51.554;13.590;2023-05-10T03:43:36;10.50;97.80
15262;DHT22;7733;51.554;13.590;2023-05-10T03:46:05;10.60;97.80
15262;DHT22;7733;51.554;13.590;2023-05-10T03:48:34;10.50;97.90
15262;DHT22;7733;51.554;13.590;2023-05-10T03:51:00;10.60;97.90
15262;DHT22;7733;51.554;13.590;2023-05-10T03:53:26;10.60;97.90
15262;DHT22;7733;51.554;13.590;2023-05-10T03:55:52;10.70;97.90
15262;DHT22;7733;51.554;13.590;2023-05-10T03:58:18;10.60;98.00
15262;DHT22;7733;51.554;13.590;2023-05-10T04:00:44;10.60;98.20
15262;DHT22;7733;51.554;13.590;2023-05-10T04:03:12;10.70;98.40
15262;DHT22;7733;51.554;13.590;2023-05-10T04:05:38;10.80;98.20
15262;DHT22;7733;51.554;13.590;2023-05-10T04:08:04;10.90;97.80
15262;DHT22;7733;51.554;13.590;2023-05-10T04:10:31;10.90;97.90
15262;DHT22;7733;51.554;13.590;2023-05-10T04:12:57;10.80;98.00
15262;DHT22;7733;51.554;13.590;2023-05-10T04:15:23;10.80;98.30
15262;DHT22;7733;51.554;13.590;2023-05-10T04:17:49;10.80;98.40
15262;DHT22;7733;51.554;13.590;2023-05-10T04:20:15;10.90;98.10
15262;DHT22;7733;51.554;13.590;2023-05-10T04:22:41;10.90;98.40
15262;DHT22;7733;51.554;13.590;2023-05-10T04:25:07;10.90;98.40
15262;DHT22;7733;51.554;13.590;2023-05-10T04:27:34;10.80;98.70
15262;DHT22;7733;51.554;13.590;2023-05-10T04:29:59;10.90;98.70
15262;DHT22;7733;51.554;13.590;2023-05-10T04:32:25;10.90;98.90
15262;DHT22;7733;51.554;13.590;2023-05-10T04:34:51;10.90;99.10
15262;DHT22;7733;51.554;13.590;2023-05-10T04:37:17;11.00;99.10
15262;DHT22;7733;51.554;13.590;2023-05-10T04:39:43;11.10;98.90
15262;DHT22;7733;51.554;13.590;2023-05-10T04:42:09;11.10;99.10
15262;DHT22;7733;51.554;13.590;2023-05-10T04:44:35;11.30;98.80
15262;DHT22;7733;51.554;13.590;2023-05-10T04:47:01;11.30;98.80
15262;DHT22;7733;51.554;13.590;2023-05-10T04:49:28;11.40;98.80
15262;DHT22;7733;51.554;13.590;2023-05-10T04:51:55;11.40;98.90
15262;DHT22;7733;51.554;13.590;2023-05-10T04:54:21;11.50;99.00
15262;DHT22;7733;51.554;13.590;2023-05-10T04:56:47;11.60;98.90
15262;DHT22;7733;51.554;13.590;2023-05-10T04:59:12;11.70;98.70
15262;DHT22;7733;51.554;13.590;2023-05-10T05:01:38;11.80;98.60
15262;DHT22;7733;51.554;13.590;2023-05-10T05:04:04;11.80;98.80
15262;DHT22;7733;51.554;13.590;2023-05-10T05:06:30;11.90;98.70
15262;DHT22;7733;51.554;13.590;2023-05-10T05:08:56;12.00;98.80
15262;DHT22;7733;51.554;13.590;2023-05-10T05:11:22;12.10;99.00
15262;DHT22;7733;51.554;13.590;2023-05-10T05:13:47;12.00;99.00
15262;DHT22;7733;51.554;13.590;2023-05-10T05:16:13;12.20;98.90
15262;DHT22;7733;51.554;13.590;2023-05-10T05:18:39;12.30;98.80
15262;DHT22;7733;51.554;13.590;2023-05-10T05:21:17;12.30;98.80
15262;DHT22;7733;51.554;13.590;2023-05-10T05:23:45;12.30;98.70
15262;DHT22;7733;51.554;13.590;2023-05-10T05:26:11;12.40;99.00
15262;DHT22;7733;51.554;13.590;2023-05-10T05:28:37;12.60;98.60
15262;DHT22;7733;51.554;13.590;2023-05-10T05:31:06;12.60;98.30
15262;DHT22;7733;51.554;13.590;2023-05-10T05:33:33;12.80;98.00
15262;DHT22;7733;51.554;13.590;2023-05-10T05:36:04;12.80;97.90
15262;DHT22;7733;51.554;13.590;2023-05-10T05:38:30;13.00;97.40
15262;DHT22;7733;51.554;13.590;2023-05-10T05:40:56;13.00;97.40
15262;DHT22;7733;51.554;13.590;2023-05-10T05:43:22;13.00;97.20
15262;DHT22;7733;51.554;13.590;2023-05-10T05:45:48;13.10;97.10
15262;DHT22;7733;51.554;13.590;2023-05-10T05:48:14;13.20;96.90
15262;DHT22;7733;51.554;13.590;2023-05-10T05:50:40;13.30;96.90
15262;DHT22;7733;51.554;13.590;2023-05-10T05:53:06;13.30;96.80
15262;DHT22;7733;51.554;13.590;2023-05-10T05:55:31;13.50;96.40
15262;DHT22;7733;51.554;13.590;2023-05-10T05:57:58;13.60;96.40
15262;DHT22;7733;51.554;13.590;2023-05-10T06:00:23;13.70;96.70
15262;DHT22;7733;51.554;13.590;2023-05-10T06:02:49;13.60;96.60
15262;DHT22;7733;51.554;13.590;2023-05-10T06:05:15;13.80;95.90
15262;DHT22;7733;51.554;13.590;2023-05-10T06:07:41;13.90;95.50
15262;DHT22;7733;51.554;13.590;2023-05-10T06:10:10;13.90;95.70
15262;DHT22;7733;51.554;13.590;2023-05-10T06:12:35;14.00;95.90
15262;DHT22;7733;51.554;13.590;2023-05-10T06:15:02;14.10;95.70
15262;DHT22;7733;51.554;13.590;2023-05-10T06:17:28;14.10;95.20
15262;DHT22;7733;51.554;13.590;2023-05-10T06:19:55;14.30;95.10
15262;DHT22;7733;51.554;13.590;2023-05-10T06:22:21;14.40;95.30
15262;DHT22;7733;51.554;13.590;2023-05-10T06:24:50;14.40;95.30
15262;DHT22;7733;51.554;13.590;2023-05-10T06:27:15;14.40;95.20
15262;DHT22;7733;51.554;13.590;2023-05-10T06:29:41;14.60;95.00
15262;DHT22;7733;51.554;13.590;2023-05-10T06:32:07;14.70;94.70
15262;DHT22;7733;51.554;13.590;2023-05-10T06:34:33;14.70;95.10
15262;DHT22;7733;51.554;13.590;2023-05-10T06:36:58;14.90;95.10
15262;DHT22;7733;51.554;13.590;2023-05-10T06:39:24;14.80;94.60
15262;DHT22;7733;51.554;13.590;2023-05-10T06:41:50;14.90;94.70
15262;DHT22;7733;51.554;13.590;2023-05-10T06:44:16;14.70;94.80
15262;DHT22;7733;51.554;13.590;2023-05-10T06:46:41;14.80;94.50
15262;DHT22;7733;51.554;13.590;2023-05-10T06:49:07;15.10;93.40
15262;DHT22;7733;51.554;13.590;2023-05-10T06:51:33;15.00;93.50
15262;DHT22;7733;51.554;13.590;2023-05-10T06:53:59;15.20;93.40
15262;DHT22;7733;51.554;13.590;2023-05-10T06:56:25;15.40;93.20
15262;DHT22;7733;51.554;13.590;2023-05-10T06:58:51;15.40;93.00
15262;DHT22;7733;51.554;13.590;2023-05-10T07:01:17;15.50;92.70
15262;DHT22;7733;51.554;13.590;2023-05-10T07:03:42;15.60;92.40
15262;DHT22;7733;51.554;13.590;2023-05-10T07:06:08;15.50;92.50
15262;DHT22;7733;51.554;13.590;2023-05-10T07:08:34;15.50;92.70
15262;DHT22;7733;51.554;13.590;2023-05-10T07:11:01;15.70;92.60
15262;DHT22;7733;51.554;13.590;2023-05-10T07:13:32;15.80;92.70
15262;DHT22;7733;51.554;13.590;2023-05-10T07:15:58;16.00;93.20
15262;DHT22;7733;51.554;13.590;2023-05-10T07:18:25;16.00;92.30
15262;DHT22;7733;51.554;13.590;2023-05-10T07:20:51;16.10;91.90
15262;DHT22;7733;51.554;13.590;2023-05-10T07:23:18;16.20;91.80
15262;DHT22;7733;51.554;13.590;2023-05-10T07:25:48;16.30;91.50
15262;DHT22;7733;51.554;13.590;2023-05-10T07:28:15;16.10;91.00
15262;DHT22;7733;51.554;13.590;2023-05-10T07:30:41;16.10;91.70
15262;DHT22;7733;51.554;13.590;2023-05-10T07:33:09;16.20;91.40
15262;DHT22;7733;51.554;13.590;2023-05-10T07:35:35;16.30;91.70
15262;DHT22;7733;51.554;13.590;2023-05-10T07:38:01;16.50;91.10
15262;DHT22;7733;51.554;13.590;2023-05-10T07:40:28;16.70;90.90
15262;DHT22;7733;51.554;13.590;2023-05-10T07:42:54;16.70;90.70
15262;DHT22;7733;51.554;13.590;2023-05-10T07:45:20;16.70;91.10
15262;DHT22;7733;51.554;13.590;2023-05-10T07:47:46;17.00;90.40
15262;DHT22;7733;51.554;13.590;2023-05-10T07:50:12;17.10;90.60
15262;DHT22;7733;51.554;13.590;2023-05-10T07:52:38;17.30;90.40
15262;DHT22;7733;51.554;13.590;2023-05-10T07:55:04;17.50;90.00
15262;DHT22;7733;51.554;13.590;2023-05-10T07:57:30;17.60;90.30
15262;DHT22;7733;51.554;13.590;2023-05-10T07:59:56;17.80;89.50
15262;DHT22;7733;51.554;13.590;2023-05-10T08:02:22;17.80;87.50
15262;DHT22;7733;51.554;13.590;2023-05-10T08:04:47;18.00;89.20
15262;DHT22;7733;51.554;13.590;2023-05-10T08:07:13;18.00;87.70
15262;DHT22;7733;51.554;13.590;2023-05-10T08:09:39;18.10;87.20
15262;DHT22;7733;51.554;13.590;2023-05-10T08:12:05;18.20;86.60
15262;DHT22;7733;51.554;13.590;2023-05-10T08:14:31;18.40;85.90
15262;DHT22;7733;51.554;13.590;2023-05-10T08:16:57;18.60;86.00
15262;DHT22;7733;51.554;13.590;2023-05-10T08:19:22;18.80;84.80
15262;DHT22;7733;51.554;13.590;2023-05-10T08:21:49;18.70;84.10
15262;DHT22;7733;51.554;13.590;2023-05-10T08:24:15;18.80;84.60
15262;DHT22;7733;51.554;13.590;2023-05-10T08:26:40;18.90;83.90
15262;DHT22;7733;51.554;13.590;2023-05-10T08:29:06;19.20;83.70
15262;DHT22;7733;51.554;13.590;2023-05-10T08:31:32;19.40;83.10
15262;DHT22;7733;51.554;13.590;2023-05-10T08:33:57;19.50;82.10
15262;DHT22;7733;51.554;13.590;2023-05-10T08:36:23;19.70;82.30
15262;DHT22;7733;51.554;13.590;2023-05-10T08:38:53;19.80;81.50
15262;DHT22;7733;51.554;13.590;2023-05-10T08:41:20;19.90;81.30
15262;DHT22;7733;51.554;13.590;2023-05-10T08:43:47;20.10;79.50
15262;DHT22;7733;51.554;13.590;2023-05-10T08:46:16;20.20;80.20
15262;DHT22;7733;51.554;13.590;2023-05-10T08:48:47;20.30;79.10
15262;DHT22;7733;51.554;13.590;2023-05-10T08:51:17;20.10;79.20
15262;DHT22;7733;51.554;13.590;2023-05-10T08:53:45;20.50;78.70
15262;DHT22;7733;51.554;13.590;2023-05-10T08:56:11;20.70;79.10
15262;DHT22;7733;51.554;13.590;2023-05-10T08:58:37;21.00;80.30
15262;DHT22;7733;51.554;13.590;2023-05-10T09:01:04;21.10;77.80
15262;DHT22;7733;51.554;13.590;2023-05-10T09:03:31;21.00;78.10
15262;DHT22;7733;51.554;13.590;2023-05-10T09:05:57;21.10;76.90
15262;DHT22;7733;51.554;13.590;2023-05-10T09:08:24;21.40;76.80
15262;DHT22;7733;51.554;13.590;2023-05-10T09:10:51;21.50;75.90
15262;DHT22;7733;51.554;13.590;2023-05-10T09:15:46;21.40;76.10
15262;DHT22;7733;51.554;13.590;2023-05-10T09:18:12;21.70;76.40
15262;DHT22;7733;51.554;13.590;2023-05-10T09:20:38;22.00;75.90
15262;DHT22;7733;51.554;13.590;2023-05-10T09:23:06;22.00;73.90
15262;DHT22;7733;51.554;13.590;2023-05-10T09:25:32;22.00;75.40
15262;DHT22;7733;51.554;13.590;2023-05-10T09:28:00;22.20;75.30
15262;DHT22;7733;51.554;13.590;2023-05-10T09:30:30;22.30;74.70
15262;DHT22;7733;51.554;13.590;2023-05-10T09:32:57;22.40;72.60
15262;DHT22;7733;51.554;13.590;2023-05-10T09:35:29;22.20;72.90
15262;DHT22;7733;51.554;13.590;2023-05-10T09:37:58;22.20;73.30
15262;DHT22;7733;51.554;13.590;2023-05-10T09:40:27;22.50;72.90
15262;DHT22;7733;51.554;13.590;2023-05-10T09:42:59;22.70;72.20
15262;DHT22;7733;51.554;13.590;2023-05-10T09:45:27;22.60;72.50
15262;DHT22;7733;51.554;13.590;2023-05-10T09:47:55;23.10;71.20
15262;DHT22;7733;51.554;13.590;2023-05-10T09:50:22;23.10;71.40
15262;DHT22;7733;51.554;13.590;2023-05-10T09:52:59;23.20;69.90
15262;DHT22;7733;51.554;13.590;2023-05-10T09:58:09;22.90;69.50
15262;DHT22;7733;51.554;13.590;2023-05-10T10:00:45;23.00;71.10
15262;DHT22;7733;51.554;13.590;2023-05-10T10:03:22;23.10;69.40
15262;DHT22;7733;51.554;13.590;2023-05-10T10:05:48;23.30;70.30
15262;DHT22;7733;51.554;13.590;2023-05-10T10:08:15;23.30;69.00
15262;DHT22;7733;51.554;13.590;2023-05-10T10:10:42;23.40;69.30
15262;DHT22;7733;51.554;13.590;2023-05-10T10:13:11;23.40;68.60
15262;DHT22;7733;51.554;13.590;2023-05-10T10:15:37;23.40;69.40
15262;DHT22;7733;51.554;13.590;2023-05-10T10:18:03;23.50;69.10
15262;DHT22;7733;51.554;13.590;2023-05-10T10:20:30;24.00;68.20
15262;DHT22;7733;51.554;13.590;2023-05-10T10:22:57;24.10;68.60
15262;DHT22;7733;51.554;13.590;2023-05-10T10:25:22;23.80;67.30
15262;DHT22;7733;51.554;13.590;2023-05-10T10:30:41;24.00;67.00
15262;DHT22;7733;51.554;13.590;2023-05-10T10:36:06;24.10;67.50
15262;DHT22;7733;51.554;13.590;2023-05-10T10:41:35;24.50;66.20
15262;DHT22;7733;51.554;13.590;2023-05-10T10:52:26;24.30;65.80
15262;DHT22;7733;51.554;13.590;2023-05-10T10:57:47;24.50;66.60
15262;DHT22;7733;51.554;13.590;2023-05-10T11:00:36;24.80;65.20
15262;DHT22;7733;51.554;13.590;2023-05-10T11:03:10;24.60;64.70
15262;DHT22;7733;51.554;13.590;2023-05-10T11:05:51;24.10;65.30
15262;DHT22;7733;51.554;13.590;2023-05-10T11:08:31;24.40;66.10
15262;DHT22;7733;51.554;13.590;2023-05-10T11:13:38;24.70;64.60
15262;DHT22;7733;51.554;13.590;2023-05-10T11:16:22;24.80;64.90
15262;DHT22;7733;51.554;13.590;2023-05-10T11:19:04;25.10;64.10
15262;DHT22;7733;51.554;13.590;2023-05-10T11:21:33;25.30;64.30
15262;DHT22;7733;51.554;13.590;2023-05-10T11:24:14;25.00;63.70
15262;DHT22;7733;51.554;13.590;2023-05-10T11:26:42;24.80;63.10
15262;DHT22;7733;51.554;13.590;2023-05-10T11:29:08;24.50;65.50
15262;DHT22;7733;51.554;13.590;2023-05-10T11:31:34;24.60;65.20
15262;DHT22;7733;51.554;13.590;2023-05-10T11:34:01;24.90;65.00
15262;DHT22;7733;51.554;13.590;2023-05-10T11:36:34;24.50;64.60
15262;DHT22;7733;51.554;13.590;2023-05-10T11:39:01;25.00;64.30
15262;DHT22;7733;51.554;13.590;2023-05-10T11:41:29;24.40;64.90
15262;DHT22;7733;51.554;13.590;2023-05-10T11:43:57;24.70;64.10
15262;DHT22;7733;51.554;13.590;2023-05-10T11:46:25;24.80;65.10
15262;DHT22;7733;51.554;13.590;2023-05-10T11:49:01;25.20;64.70
15262;DHT22;7733;51.554;13.590;2023-05-10T11:51:29;25.40;63.80
15262;DHT22;7733;51.554;13.590;2023-05-10T11:54:01;25.30;63.30
15262;DHT22;7733;51.554;13.590;2023-05-10T11:56:32;25.50;63.50
15262;DHT22;7733;51.554;13.590;2023-05-10T11:58:58;25.30;64.50
15262;DHT22;7733;51.554;13.590;2023-05-10T12:01:27;25.20;61.60
15262;DHT22;7733;51.554;13.590;2023-05-10T12:03:56;24.80;62.00
15262;DHT22;7733;51.554;13.590;2023-05-10T12:06:27;24.60;64.20
15262;DHT22;7733;51.554;13.590;2023-05-10T12:08:54;24.50;64.70
15262;DHT22;7733;51.554;13.590;2023-05-10T12:11:25;24.90;64.50
15262;DHT22;7733;51.554;13.590;2023-05-10T12:13:52;25.20;64.20
15262;DHT22;7733;51.554;13.590;2023-05-10T12:16:21;25.10;64.00
15262;DHT22;7733;51.554;13.590;2023-05-10T12:18:55;24.60;63.50
15262;DHT22;7733;51.554;13.590;2023-05-10T12:21:23;24.80;63.90
15262;DHT22;7733;51.554;13.590;2023-05-10T12:23:54;25.00;62.20
15262;DHT22;7733;51.554;13.590;2023-05-10T12:26:25;24.80;62.50
15262;DHT22;7733;51.554;13.590;2023-05-10T12:28:54;24.80;65.10
15262;DHT22;7733;51.554;13.590;2023-05-10T12:31:20;24.60;63.40
15262;DHT22;7733;51.554;13.590;2023-05-10T12:33:46;23.70;63.60
15262;DHT22;7733;51.554;13.590;2023-05-10T12:36:15;24.00;66.30
15262;DHT22;7733;51.554;13.590;2023-05-10T12:38:46;24.40;65.70
15262;DHT22;7733;51.554;13.590;2023-05-10T12:41:16;24.50;62.90
15262;DHT22;7733;51.554;13.590;2023-05-10T12:43:43;24.80;61.60
15262;DHT22;7733;51.554;13.590;2023-05-10T12:46:12;25.00;61.70
15262;DHT22;7733;51.554;13.590;2023-05-10T12:48:40;25.00;62.10
15262;DHT22;7733;51.554;13.590;2023-05-10T12:51:07;25.20;61.90
15262;DHT22;7733;51.554;13.590;2023-05-10T12:53:35;24.70;62.70
15262;DHT22;7733;51.554;13.590;2023-05-10T12:56:02;24.40;63.30
15262;DHT22;7733;51.554;13.590;2023-05-10T12:58:27;24.70;65.10
15262;DHT22;7733;51.554;13.590;2023-05-10T13:00:53;25.00;63.30
15262;DHT22;7733;51.554;13.590;2023-05-10T13:03:21;24.80;63.60
15262;DHT22;7733;51.554;13.590;2023-05-10T13:05:47;25.30;63.00
15262;DHT22;7733;51.554;13.590;2023-05-10T13:08:14;25.50;61.40
15262;DHT22;7733;51.554;13.590;2023-05-10T13:10:40;25.40;61.10
15262;DHT22;7733;51.554;13.590;2023-05-10T13:13:06;25.60;61.00
15262;DHT22;7733;51.554;13.590;2023-05-10T13:15:32;24.20;62.80
15262;DHT22;7733;51.554;13.590;2023-05-10T13:17:58;24.10;62.70
15262;DHT22;7733;51.554;13.590;2023-05-10T13:20:25;24.30;63.60
15262;DHT22;7733;51.554;13.590;2023-05-10T13:22:51;23.90;66.00
15262;DHT22;7733;51.554;13.590;2023-05-10T13:25:17;24.40;64.60
15262;DHT22;7733;51.554;13.590;2023-05-10T13:27:42;24.20;63.90
15262;DHT22;7733;51.554;13.590;2023-05-10T13:30:09;23.50;75.30
15262;DHT22;7733;51.554;13.590;2023-05-10T13:32:35;23.00;79.20
15262;DHT22;7733;51.554;13.590;2023-05-10T13:35:01;22.80;81.10
15262;DHT22;7733;51.554;13.590;2023-05-10T13:37:29;22.70;81.60
15262;DHT22;7733;51.554;13.590;2023-05-10T13:39:55;22.50;84.30
15262;DHT22;7733;51.554;13.590;2023-05-10T13:42:22;22.60;84.80
15262;DHT22;7733;51.554;13.590;2023-05-10T13:44:52;22.30;85.60
15262;DHT22;7733;51.554;13.590;2023-05-10T13:47:18;23.00;82.50
15262;DHT22;7733;51.554;13.590;2023-05-10T13:49:44;22.80;83.60
15262;DHT22;7733;51.554;13.590;2023-05-10T13:52:09;22.30;86.80
15262;DHT22;7733;51.554;13.590;2023-05-10T13:54:38;21.80;88.20
15262;DHT22;7733;51.554;13.590;2023-05-10T13:57:04;21.70;90.10
15262;DHT22;7733;51.554;13.590;2023-05-10T13:59:30;22.10;89.30
15262;DHT22;7733;51.554;13.590;2023-05-10T14:01:57;22.20;90.20
15262;DHT22;7733;51.554;13.590;2023-05-10T14:04:29;22.20;87.90
15262;DHT22;7733;51.554;13.590;2023-05-10T14:06:55;22.50;88.40
15262;DHT22;7733;51.554;13.590;2023-05-10T14:09:21;22.30;87.30
15262;DHT22;7733;51.554;13.590;2023-05-10T14:11:47;22.50;86.80
15262;DHT22;7733;51.554;13.590;2023-05-10T14:14:13;22.10;86.00
15262;DHT22;7733;51.554;13.590;2023-05-10T14:16:42;22.20;86.00
15262;DHT22;7733;51.554;13.590;2023-05-10T14:19:10;22.70;83.90
15262;DHT22;7733;51.554;13.590;2023-05-10T14:21:36;22.70;84.90
15262;DHT22;7733;51.554;13.590;2023-05-10T14:24:02;22.60;85.80
15262;DHT22;7733;51.554;13.590;2023-05-10T14:26:28;22.90;85.30
15262;DHT22;7733;51.554;13.590;2023-05-10T14:28:54;23.50;84.00
15262;DHT22;7733;51.554;13.590;2023-05-10T14:31:19;23.00;82.60
15262;DHT22;7733;51.554;13.590;2023-05-10T14:33:50;23.00;83.00
15262;DHT22;7733;51.554;13.590;2023-05-10T14:36:17;23.50;82.70
15262;DHT22;7733;51.554;13.590;2023-05-10T14:38:43;23.50;80.40
15262;DHT22;7733;51.554;13.590;2023-05-10T14:41:09;23.50;79.20
15262;DHT22;7733;51.554;13.590;2023-05-10T14:43:39;23.20;81.60
15262;DHT22;7733;51.554;13.590;2023-05-10T14:46:05;22.90;82.70
15262;DHT22;7733;51.554;13.590;2023-05-10T14:48:30;23.10;82.80
15262;DHT22;7733;51.554;13.590;2023-05-10T14:50:56;22.90;83.60
15262;DHT22;7733;51.554;13.590;2023-05-10T14:53:22;22.20;86.80
15262;DHT22;7733;51.554;13.590;2023-05-10T14:55:48;21.80;87.30
15262;DHT22;7733;51.554;13.590;2023-05-10T14:58:13;22.00;88.90
15262;DHT22;7733;51.554;13.590;2023-05-10T15:00:40;21.70;88.20
15262;DHT22;7733;51.554;13.590;2023-05-10T15:03:06;21.70;88.60
15262;DHT22;7733;51.554;13.590;2023-05-10T15:05:32;21.50;89.80
15262;DHT22;7733;51.554;13.590;2023-05-10T15:07:57;21.30;90.20
15262;DHT22;7733;51.554;13.590;2023-05-10T15:10:23;21.60;88.30
15262;DHT22;7733;51.554;13.590;2023-05-10T15:12:50;21.60;89.10
15262;DHT22;7733;51.554;13.590;2023-05-10T15:15:15;21.50;89.90
15262;DHT22;7733;51.554;13.590;2023-05-10T15:17:41;21.20;89.00
15262;DHT22;7733;51.554;13.590;2023-05-10T15:20:07;21.40;89.30
15262;DHT22;7733;51.554;13.590;2023-05-10T15:22:33;21.30;89.60
15262;DHT22;7733;51.554;13.590;2023-05-10T15:24:59;21.40;90.20
15262;DHT22;7733;51.554;13.590;2023-05-10T15:27:25;21.30;90.60
15262;DHT22;7733;51.554;13.590;2023-05-10T15:29:52;21.80;89.20
15262;DHT22;7733;51.554;13.590;2023-05-10T15:32:18;21.90;88.10
15262;DHT22;7733;51.554;13.590;2023-05-10T15:34:43;21.60;89.60
15262;DHT22;7733;51.554;13.590;2023-05-10T15:37:09;21.40;89.30
15262;DHT22;7733;51.554;13.590;2023-05-10T15:39:35;21.30;89.00
15262;DHT22;7733;51.554;13.590;2023-05-10T15:42:01;21.20;90.10
15262;DHT22;7733;51.554;13.590;2023-05-10T15:44:28;21.40;90.20
15262;DHT22;7733;51.554;13.590;2023-05-10T15:46:54;21.20;90.40
15262;DHT22;7733;51.554;13.590;2023-05-10T15:49:19;21.40;90.20
15262;DHT22;7733;51.554;13.590;2023-05-10T15:51:45;21.50;90.20
15262;DHT22;7733;51.554;13.590;2023-05-10T15:54:11;21.40;90.30
15262;DHT22;7733;51.554;13.590;2023-05-10T15:56:37;21.40;89.20
15262;DHT22;7733;51.554;13.590;2023-05-10T15:59:02;21.20;89.30
15262;DHT22;7733;51.554;13.590;2023-05-10T16:01:30;21.30;90.00
15262;DHT22;7733;51.554;13.590;2023-05-10T16:03:57;21.50;88.90
15262;DHT22;7733;51.554;13.590;2023-05-10T16:06:22;21.20;88.40
15262;DHT22;7733;51.554;13.590;2023-05-10T16:08:48;21.10;89.00
15262;DHT22;7733;51.554;13.590;2023-05-10T16:11:14;21.20;88.10
15262;DHT22;7733;51.554;13.590;2023-05-10T16:13:39;21.00;88.20
15262;DHT22;7733;51.554;13.590;2023-05-10T16:16:05;21.00;88.60